METAR AND TAF INFORMATION
METAR FOR LPPR
ADDS - METARS form results

(1255 UTC 21 February 2019)
Data provider http://aviationweather.gov/metar/data/
 
METAR text: LPPR 211230Z 22008KT 190V270 CAVOK 16/09 Q1024
Conditions at: LPPR (PORTO/PEDRAS RUB, PT) observed 1230 UTC 21 February 2019
Temperature: 16.0°C (61°F)
Dewpoint: 9.0°C (48°F) [RH = 63%]
Pressure (altimeter): 30.24 inches Hg (1024.0 mb)
Winds: from the SW (220 degrees) at 9 MPH (8 knots; 4.1 m/s)
Visibility: 6 or more miles (10+ km)
Ceiling: ceiling and visibility are OK
Clouds: unknown
Weather: no significant weather observed at this time

METAR text: LPPR 211200Z 15009KT 120V180 CAVOK 18/09 Q1024
Conditions at: LPPR (PORTO/PEDRAS RUB, PT) observed 1200 UTC 21 February 2019
Temperature: 18.0°C (64°F)
Dewpoint: 9.0°C (48°F) [RH = 56%]
Pressure (altimeter): 30.24 inches Hg (1024.0 mb)
Winds: from the SSE (150 degrees) at 10 MPH (9 knots; 4.6 m/s)
Visibility: 6 or more miles (10+ km)
Ceiling: ceiling and visibility are OK
Clouds: unknown
Weather: no significant weather observed at this time

Forecast for: LPPR (PORTO/PEDRAS RUB, PT)
Text: TAF LPPR 211100Z 2112/2212 19010KT CAVOK
Forecast period: 1200 to 2100 UTC 21 February 2019
Forecast type: FROM: standard forecast or significant change
Winds: from the S (190 degrees) at 12 MPH (10 knots; 5.1 m/s)
Visibility: 6 or more miles 10+ km)
Ceiling: unknown
Clouds: missing
Weather: NSW  (no significant weather)
Text: BECMG 2121/2124 12010KT
Forecast period: 2100 UTC 21 February 2019 to 1200 UTC 22 February 2019
Forecast type: BECOMING: Conditions expected to become as follows by 0000 UTC 22 February 2019
Winds: from the ESE (120 degrees) at 12 MPH (10 knots; 5.1 m/s)
Visibility: 6 or more miles 10+ km)
Ceiling: unknown
Clouds: missing
Weather: NSW  (no significant weather)

 AIRPORT MAP

 RUNWAY INFORMATION
Runway 17 Runway length 11417 ft Runway width 148 ft
Runway elevation 151 ft Runway displaced threshold 984 ft Runway heading 169
Runway 35 Runway length 11417 ft Runway width 148 ft
Runway elevation 226 ft Runway displaced threshold 492 ft Runway heading 349

 AIRPORT FREQUENCIES
Type APP Name APP Frequency 121.1 MHZ
Type ATIS Name ATIS Frequency 124.3 MHZ
Type TWR Name TWR Frequency 118 MHZ

 AIRPORT NEAR NAVIGATION AIDS
Type NDB Name Porto Frequency 367 KHZ
Type NDB Name Porto Frequency 327 KHZ
Type VOR-DME Name Porto Frequency 114100 KHZ



Powered by Virtual Airlines Manager [[v2.6.2]]